Portada
METAR-TAF:

METAR-TAF

Aeroports :

Richmond, Virgínia, Estats Units d'Amèrica

latitud: 37-24-24N, longitud: 077-31-30W, altitud: 72 m

Observació

L'informe es va fer fa 22 minuts, a les 14:56 UTC
Vent calma
Temperatura 5°C
Humitat 81%
Pressió 1025 hPa
Visibilitat: 16.1 km
Cel cobert a una alçada de 8000 ft

METAR: KFCI 151456Z AUTO 00000KT 10SM OVC080 05/02 A3028 RMK AO2 SLP266 T00500022 50004

Hora: 10:18 (15:18 UTC)


TAF: manca

Observacions i pronòstics meteorològics de més de 4000 aeroports (METAR i TAF).

Les estacions disponibles són els punts grocs i vermells al mapa.

Posi el ratolí al punt desitjat per veure el nom de l'estació.

Feu clic per veure les observacions i els pronòstics meteorològics.

Per canviar el mapa: feu clic els botons verds amb una creu de color negre per apropar; al botó verd amb un guió per allunyar la imatge; o en les fletxes verdes per a mapes adjacents.


METAR-TAF: